Time;durP1;ratioP1;P1;durP2;ratioP2;P2;SDS_P1;SDS_P2;PMS_P1;PMS_P2;Temp;Humidity;BMP_temperature;BMP_pressure;BME280_temperature;BME280_humidity;BME280_pressure;Samples;Min_cycle;Max_cycle;Signal;HPM_P1;HPM_P2
2023/05/05 00:01:15;;;;;;;6.27;4.97;;;;;;;;;;4988905;28;20419;-91
2023/05/05 00:03:41;;;;;;;6.50;4.30;;;;;;;;;;4989012;28;20420;-90
2023/05/05 00:06:07;;;;;;;7.97;5.40;;;;;;;;;;4990770;28;20430;-90
2023/05/05 00:08:33;;;;;;;4.83;4.30;;;;;;;;;;4997237;28;20474;-91
2023/05/05 00:10:59;;;;;;;6.90;4.27;;;;;;;;;;4990120;28;20422;-90
2023/05/05 00:13:25;;;;;;;5.60;5.00;;;;;;;;;;4989853;28;20418;-90
2023/05/05 00:15:52;;;;;;;7.20;4.63;;;;;;;;;;4988374;28;20936;-90
2023/05/05 00:18:18;;;;;;;7.10;4.47;;;;;;;;;;4975772;28;20906;-91
2023/05/05 00:20:46;;;;;;;5.80;4.90;;;;;;;;;;4987562;28;20618;-90
2023/05/05 00:23:11;;;;;;;5.80;4.90;;;;;;;;;;4988243;28;20434;-90
2023/05/05 00:25:37;;;;;;;4.97;4.20;;;;;;;;;;4988621;28;20450;-90
2023/05/05 00:28:03;;;;;;;6.20;5.33;;;;;;;;;;4989520;28;20434;-91
2023/05/05 00:30:29;;;;;;;5.87;4.73;;;;;;;;;;4989039;28;20458;-92
2023/05/05 00:32:56;;;;;;;5.20;4.67;;;;;;;;;;4988924;28;20802;-90
2023/05/05 00:35:22;;;;;;;7.60;4.87;;;;;;;;;;4989582;28;20433;-91
2023/05/05 00:37:48;;;;;;;5.70;4.73;;;;;;;;;;4990743;28;20454;-91
2023/05/05 00:40:14;;;;;;;6.30;4.37;;;;;;;;;;4991510;28;20445;-91
2023/05/05 00:42:43;;;;;;;3.90;3.50;;;;;;;;;;4988831;28;20426;-91
2023/05/05 00:45:13;;;;;;;4.80;4.30;;;;;;;;;;4989636;28;20513;-91
2023/05/05 00:47:40;;;;;;;8.70;5.03;;;;;;;;;;4988152;28;20520;-91
2023/05/05 00:50:07;;;;;;;6.00;5.40;;;;;;;;;;4973481;28;20524;-91
2023/05/05 00:52:34;;;;;;;6.50;4.83;;;;;;;;;;4988221;28;20433;-91
2023/05/05 00:55:00;;;;;;;4.70;4.30;;;;;;;;;;4990484;28;20414;-91
2023/05/05 00:57:27;;;;;;;5.53;4.37;;;;;;;;;;4990795;28;20441;-90
2023/05/05 00:59:53;;;;;;;4.57;4.10;;;;;;;;;;4990512;28;20964;-91
2023/05/05 01:02:19;;;;;;;5.17;4.40;;;;;;;;;;4989357;28;20429;-91
2023/05/05 01:04:45;;;;;;;5.20;4.40;;;;;;;;;;4975876;28;20564;-91
2023/05/05 01:07:25;;;;;;;6.90;3.60;;;;;;;;;;4988726;28;20434;-90
2023/05/05 01:09:59;;;;;;;5.50;4.33;;;;;;;;;;4988002;28;21003;-91
2023/05/05 01:12:44;;;;;;;5.43;4.27;;;;;;;;;;4973839;28;20434;-91
2023/05/05 01:15:19;;;;;;;7.40;4.53;;;;;;;;;;4991032;28;20433;-90
2023/05/05 01:17:48;;;;;;;6.40;5.33;;;;;;;;;;4989381;28;20433;-91
2023/05/05 01:20:17;;;;;;;5.17;4.63;;;;;;;;;;4990920;28;20428;-91
2023/05/05 01:22:46;;;;;;;5.27;4.10;;;;;;;;;;4973705;28;20786;-89
2023/05/05 01:25:32;;;;;;;4.70;4.20;;;;;;;;;;4987186;28;20450;-91
2023/05/05 01:27:58;;;;;;;4.60;4.20;;;;;;;;;;4985969;28;20483;-90
2023/05/05 01:30:43;;;;;;;5.00;4.47;;;;;;;;;;4988900;28;20465;-90
2023/05/05 01:33:10;;;;;;;5.03;4.53;;;;;;;;;;4988557;28;20901;-90
2023/05/05 01:35:37;;;;;;;5.00;4.50;;;;;;;;;;4987315;28;20429;-91
2023/05/05 01:38:29;;;;;;;4.80;4.30;;;;;;;;;;4986865;28;20454;-90
2023/05/05 01:40:56;;;;;;;6.20;4.50;;;;;;;;;;4992156;28;20425;-91
2023/05/05 01:43:22;;;;;;;4.67;4.10;;;;;;;;;;4988616;28;20515;-91
2023/05/05 01:45:48;;;;;;;5.20;4.47;;;;;;;;;;4985311;28;20438;-91
2023/05/05 01:48:14;;;;;;;6.80;4.43;;;;;;;;;;4989138;28;20967;-90
2023/05/05 01:50:41;;;;;;;7.67;4.97;;;;;;;;;;4990940;28;20604;-91
2023/05/05 01:53:08;;;;;;;7.67;4.67;;;;;;;;;;4978939;28;20426;-91
2023/05/05 01:55:34;;;;;;;7.50;4.87;;;;;;;;;;4989910;28;20913;-90
2023/05/05 01:58:00;;;;;;;12.67;5.87;;;;;;;;;;4990425;28;20449;-92
2023/05/05 02:00:26;;;;;;;5.87;4.93;;;;;;;;;;4993339;28;20801;-91
2023/05/05 02:02:52;;;;;;;5.70;5.10;;;;;;;;;;4993129;28;20492;-91
2023/05/05 02:05:20;;;;;;;4.50;4.07;;;;;;;;;;4994822;28;20883;-91
2023/05/05 02:07:46;;;;;;;4.70;4.30;;;;;;;;;;4978263;28;20453;-91
2023/05/05 02:10:12;;;;;;;4.93;4.43;;;;;;;;;;4981276;28;21373;-91
2023/05/05 02:12:39;;;;;;;7.77;4.50;;;;;;;;;;4988645;28;20442;-90
2023/05/05 02:15:05;;;;;;;5.33;4.80;;;;;;;;;;4993065;28;20445;-90
2023/05/05 02:17:31;;;;;;;4.80;4.13;;;;;;;;;;4992922;28;20533;-90
2023/05/05 02:19:57;;;;;;;4.70;4.30;;;;;;;;;;4992755;28;20469;-91
2023/05/05 02:22:23;;;;;;;4.67;4.20;;;;;;;;;;4991492;28;20521;-90
2023/05/05 02:24:49;;;;;;;4.10;3.67;;;;;;;;;;4994541;28;20434;-90
2023/05/05 02:27:16;;;;;;;5.03;3.53;;;;;;;;;;4984691;28;20445;-90
2023/05/05 02:29:44;;;;;;;4.73;4.20;;;;;;;;;;4992484;28;20454;-90
2023/05/05 02:32:11;;;;;;;5.13;4.33;;;;;;;;;;4990342;28;20485;-91
2023/05/05 02:34:37;;;;;;;5.73;4.53;;;;;;;;;;4990491;28;20513;-91
2023/05/05 02:37:07;;;;;;;4.53;4.00;;;;;;;;;;4984226;28;20427;-91
2023/05/05 02:39:38;;;;;;;6.13;3.73;;;;;;;;;;4989559;28;20426;-92
2023/05/05 02:42:04;;;;;;;9.20;4.10;;;;;;;;;;4991757;28;20453;-91
2023/05/05 02:44:30;;;;;;;4.50;4.10;;;;;;;;;;4992116;28;20433;-91
2023/05/05 02:46:56;;;;;;;4.97;4.47;;;;;;;;;;4992008;28;20438;-91
2023/05/05 02:49:22;;;;;;;5.50;4.97;;;;;;;;;;4991286;28;22230;-92
2023/05/05 02:51:48;;;;;;;4.77;3.90;;;;;;;;;;4977261;28;20487;-92
2023/05/05 02:54:14;;;;;;;6.30;4.40;;;;;;;;;;4992409;28;21003;-91
2023/05/05 02:56:42;;;;;;;4.60;3.70;;;;;;;;;;4992768;28;20448;-91
2023/05/05 02:59:08;;;;;;;8.60;4.37;;;;;;;;;;4992219;28;20965;-91
2023/05/05 03:01:55;;;;;;;6.50;4.20;;;;;;;;;;4989740;28;20427;-91
2023/05/05 03:04:40;;;;;;;5.37;4.57;;;;;;;;;;4986715;28;20454;-91
2023/05/05 03:07:08;;;;;;;7.60;4.20;;;;;;;;;;4991283;28;20444;-92
2023/05/05 03:09:39;;;;;;;6.83;4.43;;;;;;;;;;4990569;28;20458;-92
2023/05/05 03:12:06;;;;;;;6.83;4.70;;;;;;;;;;4987326;28;20427;-91
2023/05/05 03:14:39;;;;;;;7.10;4.43;;;;;;;;;;4992479;28;20414;-91
2023/05/05 03:17:05;;;;;;;5.17;3.87;;;;;;;;;;4991152;28;20418;-91
2023/05/05 03:19:31;;;;;;;5.00;4.17;;;;;;;;;;4992546;28;20422;-91
2023/05/05 03:21:57;;;;;;;5.73;4.03;;;;;;;;;;4989643;28;20795;-91
2023/05/05 03:24:23;;;;;;;5.27;4.20;;;;;;;;;;4990762;28;20533;-91
2023/05/05 03:26:49;;;;;;;6.57;4.53;;;;;;;;;;4990362;28;20441;-91
2023/05/05 03:29:16;;;;;;;4.33;3.80;;;;;;;;;;4990613;28;20466;-91
2023/05/05 03:31:42;;;;;;;7.73;4.40;;;;;;;;;;4990587;28;20452;-91
2023/05/05 03:34:08;;;;;;;5.40;4.27;;;;;;;;;;4991643;28;20532;-91
2023/05/05 03:36:34;;;;;;;8.10;3.60;;;;;;;;;;4990260;28;20525;-91
2023/05/05 03:39:00;;;;;;;5.93;4.20;;;;;;;;;;4991137;28;20437;-93
2023/05/05 03:41:26;;;;;;;5.67;4.40;;;;;;;;;;4991848;28;20442;-91
2023/05/05 03:43:52;;;;;;;3.40;3.10;;;;;;;;;;4990655;28;20472;-91
2023/05/05 03:46:20;;;;;;;5.63;4.90;;;;;;;;;;4991293;28;20448;-89
2023/05/05 03:48:47;;;;;;;5.63;4.03;;;;;;;;;;4990722;28;20552;-89
2023/05/05 03:51:13;;;;;;;5.60;4.30;;;;;;;;;;4989706;28;20477;-90
2023/05/05 03:53:39;;;;;;;5.80;4.77;;;;;;;;;;4990232;28;20936;-90
2023/05/05 03:56:05;;;;;;;4.10;3.70;;;;;;;;;;4989291;28;20441;-90
2023/05/05 03:58:31;;;;;;;4.83;4.07;;;;;;;;;;4992073;28;20844;-90
2023/05/05 04:00:57;;;;;;;5.90;4.33;;;;;;;;;;4988956;28;20457;-90
2023/05/05 04:03:23;;;;;;;6.40;3.70;;;;;;;;;;4989055;28;20426;-89
2023/05/05 04:05:49;;;;;;;6.70;4.60;;;;;;;;;;4991219;28;20893;-90
2023/05/05 04:08:15;;;;;;;5.20;4.43;;;;;;;;;;4979448;28;20509;-93
2023/05/05 04:10:41;;;;;;;5.03;4.30;;;;;;;;;;4975219;28;20526;-90
2023/05/05 04:13:07;;;;;;;4.73;3.87;;;;;;;;;;4978301;28;20474;-91
2023/05/05 04:15:33;;;;;;;4.83;4.10;;;;;;;;;;4990318;28;20429;-91
2023/05/05 04:17:59;;;;;;;5.00;4.40;;;;;;;;;;4982892;28;20484;-91
2023/05/05 04:20:25;;;;;;;5.20;4.40;;;;;;;;;;4990247;28;20434;-90
2023/05/05 04:22:51;;;;;;;4.80;4.03;;;;;;;;;;4987698;28;20916;-91
2023/05/05 04:25:17;;;;;;;4.57;3.50;;;;;;;;;;4994270;28;20441;-90
2023/05/05 04:27:43;;;;;;;5.17;3.43;;;;;;;;;;4987822;28;20790;-93
2023/05/05 04:30:09;;;;;;;5.13;3.87;;;;;;;;;;4993772;28;20485;-92
2023/05/05 04:32:35;;;;;;;7.43;4.90;;;;;;;;;;4990750;28;20488;-93
2023/05/05 04:35:01;;;;;;;5.60;4.47;;;;;;;;;;4993514;28;20449;-94
2023/05/05 04:37:28;;;;;;;4.00;3.60;;;;;;;;;;4984429;28;20430;-94
2023/05/05 04:39:56;;;;;;;4.40;4.00;;;;;;;;;;4994671;28;20433;-93
2023/05/05 04:42:22;;;;;;;5.30;4.07;;;;;;;;;;4984471;28;20446;-95
2023/05/05 04:44:55;;;;;;;3.80;3.50;;;;;;;;;;4992928;28;20437;-94
2023/05/05 04:47:21;;;;;;;5.40;3.80;;;;;;;;;;4994300;28;20433;-90
2023/05/05 04:49:48;;;;;;;4.40;3.83;;;;;;;;;;4994276;28;20484;-90
2023/05/05 04:52:14;;;;;;;6.50;4.47;;;;;;;;;;4978415;28;20479;-90
2023/05/05 04:54:40;;;;;;;6.73;3.97;;;;;;;;;;4993601;28;20796;-91
2023/05/05 04:57:14;;;;;;;5.43;3.37;;;;;;;;;;4996978;28;20426;-95
2023/05/05 04:59:40;;;;;;;4.00;3.03;;;;;;;;;;5008134;28;20504;-96
2023/05/05 05:02:06;;;;;;;7.13;3.60;;;;;;;;;;4974079;28;20439;-94
2023/05/05 05:04:34;;;;;;;4.50;4.10;;;;;;;;;;4947027;28;20481;-93
2023/05/05 05:07:00;;;;;;;5.13;4.07;;;;;;;;;;4960547;28;20436;-94
2023/05/05 05:09:26;;;;;;;5.00;4.23;;;;;;;;;;4940618;28;20506;-93
2023/05/05 05:11:52;;;;;;;5.27;3.67;;;;;;;;;;4947363;28;20427;-93
2023/05/05 05:14:18;;;;;;;4.97;3.40;;;;;;;;;;4943999;29;20514;-94
2023/05/05 05:16:44;;;;;;;5.13;3.80;;;;;;;;;;4942789;28;21122;-93
2023/05/05 05:19:10;;;;;;;3.60;3.30;;;;;;;;;;4944071;28;20443;-93
2023/05/05 05:21:36;;;;;;;6.00;3.33;;;;;;;;;;4952432;28;20470;-93
2023/05/05 05:24:02;;;;;;;4.27;3.80;;;;;;;;;;4959235;29;20434;-93
2023/05/05 05:26:29;;;;;;;4.27;3.87;;;;;;;;;;4960416;28;20895;-94
2023/05/05 05:28:57;;;;;;;3.13;2.83;;;;;;;;;;4957389;28;20462;-94
2023/05/05 05:31:23;;;;;;;4.10;3.70;;;;;;;;;;4956726;28;20830;-93
2023/05/05 05:33:49;;;;;;;4.23;3.57;;;;;;;;;;4987368;28;20446;-92
2023/05/05 05:36:15;;;;;;;3.80;3.30;;;;;;;;;;4996509;28;20472;-93
2023/05/05 05:38:41;;;;;;;4.47;3.47;;;;;;;;;;4999159;28;20435;-93
2023/05/05 05:41:07;;;;;;;3.40;3.03;;;;;;;;;;4997588;28;20426;-91
2023/05/05 05:43:33;;;;;;;5.10;3.90;;;;;;;;;;4995554;28;20437;-92
2023/05/05 05:45:59;;;;;;;5.90;3.40;;;;;;;;;;4995625;28;20438;-92
2023/05/05 05:48:27;;;;;;;5.27;3.70;;;;;;;;;;4998852;28;20445;-92
2023/05/05 05:50:53;;;;;;;4.40;3.37;;;;;;;;;;4994880;28;20493;-91
2023/05/05 05:53:19;;;;;;;3.50;2.87;;;;;;;;;;4985816;28;20434;-91
2023/05/05 05:55:46;;;;;;;7.73;3.27;;;;;;;;;;4996076;28;20427;-91
2023/05/05 05:58:12;;;;;;;6.17;3.30;;;;;;;;;;4991244;28;20458;-91
2023/05/05 06:00:38;;;;;;;5.53;2.97;;;;;;;;;;4994230;28;20446;-91
2023/05/05 06:03:03;;;;;;;3.40;3.10;;;;;;;;;;4989212;28;20592;-91
2023/05/05 06:05:30;;;;;;;6.10;2.97;;;;;;;;;;4982196;28;20441;-92
2023/05/05 06:07:56;;;;;;;3.00;2.70;;;;;;;;;;4980201;28;20517;-92
2023/05/05 06:10:22;;;;;;;6.40;3.17;;;;;;;;;;4995510;28;20503;-91
2023/05/05 06:12:48;;;;;;;5.13;3.00;;;;;;;;;;4995667;28;20422;-92
2023/05/05 06:15:14;;;;;;;3.70;2.70;;;;;;;;;;4977379;28;20520;-91
2023/05/05 06:17:40;;;;;;;5.57;2.70;;;;;;;;;;4978514;28;20838;-91
2023/05/05 06:20:06;;;;;;;5.10;2.87;;;;;;;;;;4976412;28;20434;-91
2023/05/05 06:22:32;;;;;;;5.87;2.93;;;;;;;;;;4979075;28;20976;-91
2023/05/05 06:24:58;;;;;;;3.10;2.80;;;;;;;;;;4977010;28;20438;-93
2023/05/05 06:27:24;;;;;;;4.13;3.07;;;;;;;;;;4993425;28;20441;-92
2023/05/05 06:29:50;;;;;;;3.63;3.00;;;;;;;;;;4987520;28;20452;-92
2023/05/05 06:32:16;;;;;;;4.20;2.47;;;;;;;;;;4979072;28;20446;-93
2023/05/05 06:34:43;;;;;;;4.67;2.97;;;;;;;;;;4991466;28;20954;-93
2023/05/05 06:37:09;;;;;;;5.40;2.80;;;;;;;;;;4998082;28;20929;-91
2023/05/05 06:39:37;;;;;;;3.40;3.10;;;;;;;;;;4988263;28;20438;-90
2023/05/05 06:42:03;;;;;;;3.13;2.83;;;;;;;;;;4993117;28;20445;-90
2023/05/05 06:44:30;;;;;;;3.40;2.87;;;;;;;;;;4999658;28;21015;-91
2023/05/05 06:46:56;;;;;;;5.00;3.30;;;;;;;;;;4990176;28;20437;-91
2023/05/05 06:49:22;;;;;;;5.50;3.17;;;;;;;;;;4992454;28;20558;-92
2023/05/05 06:51:48;;;;;;;5.00;2.63;;;;;;;;;;4956453;28;20443;-89
2023/05/05 06:54:14;;;;;;;4.20;3.07;;;;;;;;;;4955122;28;20436;-90
2023/05/05 06:56:40;;;;;;;3.23;2.53;;;;;;;;;;4957865;28;20913;-89
2023/05/05 06:59:06;;;;;;;3.20;2.33;;;;;;;;;;4953405;28;20449;-89
2023/05/05 07:01:32;;;;;;;3.13;2.03;;;;;;;;;;4938809;29;20424;-89
2023/05/05 07:03:58;;;;;;;3.33;2.80;;;;;;;;;;4953332;28;20450;-89
2023/05/05 07:06:24;;;;;;;4.37;2.23;;;;;;;;;;4957614;28;20451;-91
2023/05/05 07:08:50;;;;;;;3.73;2.67;;;;;;;;;;4944193;29;20446;-89
2023/05/05 07:11:16;;;;;;;7.20;2.67;;;;;;;;;;4953409;28;21170;-90
2023/05/05 07:13:43;;;;;;;3.70;2.47;;;;;;;;;;4944376;28;20459;-92
2023/05/05 07:16:10;;;;;;;3.30;2.87;;;;;;;;;;4962921;28;20494;-93
2023/05/05 07:18:36;;;;;;;3.23;2.07;;;;;;;;;;4963219;28;20465;-93
2023/05/05 07:21:04;;;;;;;2.90;2.60;;;;;;;;;;4966350;28;20431;-93
2023/05/05 07:23:30;;;;;;;4.27;2.50;;;;;;;;;;4989980;28;20470;-93
2023/05/05 07:25:56;;;;;;;3.40;2.30;;;;;;;;;;4997378;28;20430;-93
2023/05/05 07:28:22;;;;;;;4.83;3.47;;;;;;;;;;4980537;28;20437;-94
2023/05/05 07:30:50;;;;;;;3.00;2.70;;;;;;;;;;4999993;28;20456;-93
2023/05/05 07:33:17;;;;;;;5.60;2.93;;;;;;;;;;4996527;28;20425;-94
2023/05/05 07:35:44;;;;;;;3.33;2.90;;;;;;;;;;4997548;28;20441;-94
2023/05/05 07:38:10;;;;;;;3.03;2.50;;;;;;;;;;4996787;28;20998;-93
2023/05/05 07:40:36;;;;;;;3.50;2.87;;;;;;;;;;4998933;28;20422;-93
2023/05/05 07:43:03;;;;;;;3.03;2.73;;;;;;;;;;5006769;28;20414;-96
2023/05/05 07:45:30;;;;;;;3.70;2.67;;;;;;;;;;4998162;28;20533;-92
2023/05/05 07:47:56;;;;;;;5.00;2.40;;;;;;;;;;4990743;28;20448;-92
2023/05/05 07:50:23;;;;;;;5.40;2.73;;;;;;;;;;4992674;28;20447;-93
2023/05/05 07:52:49;;;;;;;4.40;2.50;;;;;;;;;;4996489;28;20521;-94
2023/05/05 07:55:15;;;;;;;4.90;3.20;;;;;;;;;;4992669;28;20442;-94
2023/05/05 07:57:41;;;;;;;6.73;2.50;;;;;;;;;;4996929;28;21039;-93
2023/05/05 08:00:08;;;;;;;4.50;3.03;;;;;;;;;;4982054;28;20805;-94
2023/05/05 08:02:34;;;;;;;4.37;2.97;;;;;;;;;;4998244;28;20469;-93
2023/05/05 08:05:00;;;;;;;4.43;3.33;;;;;;;;;;4993407;28;20430;-94
2023/05/05 08:07:26;;;;;;;3.00;2.70;;;;;;;;;;4994083;28;20438;-93
2023/05/05 08:09:52;;;;;;;4.10;2.97;;;;;;;;;;5000921;28;20467;-93
2023/05/05 08:12:19;;;;;;;6.90;4.43;;;;;;;;;;4994888;28;20948;-93
2023/05/05 08:14:46;;;;;;;8.00;3.83;;;;;;;;;;4995979;28;20549;-95
2023/05/05 08:17:12;;;;;;;4.50;3.30;;;;;;;;;;4992602;28;20669;-91
2023/05/05 08:19:38;;;;;;;3.87;3.47;;;;;;;;;;4994351;28;20430;-91
2023/05/05 08:22:04;;;;;;;4.70;3.80;;;;;;;;;;4992707;28;21158;-90
2023/05/05 08:24:30;;;;;;;8.83;4.10;;;;;;;;;;4996516;28;20472;-90
2023/05/05 08:26:56;;;;;;;4.70;4.00;;;;;;;;;;4995443;28;20944;-90
2023/05/05 08:29:22;;;;;;;4.77;4.10;;;;;;;;;;4992295;28;20465;-90
2023/05/05 08:31:48;;;;;;;6.23;4.37;;;;;;;;;;4991177;28;20517;-91
2023/05/05 08:34:14;;;;;;;9.60;5.33;;;;;;;;;;4991604;28;20434;-91
2023/05/05 08:36:40;;;;;;;7.30;4.47;;;;;;;;;;4992740;28;20418;-92
2023/05/05 08:39:18;;;;;;;5.53;3.70;;;;;;;;;;4978650;28;20497;-92
2023/05/05 08:41:44;;;;;;;4.00;3.60;;;;;;;;;;4990035;28;20426;-92
2023/05/05 08:44:10;;;;;;;4.63;4.13;;;;;;;;;;4995295;28;20477;-90
2023/05/05 08:46:36;;;;;;;5.57;4.20;;;;;;;;;;4991078;28;20445;-92
2023/05/05 08:49:02;;;;;;;9.67;4.57;;;;;;;;;;4986088;28;20459;-92
2023/05/05 08:51:30;;;;;;;8.40;4.33;;;;;;;;;;4992485;28;20441;-91
2023/05/05 08:53:59;;;;;;;4.60;3.77;;;;;;;;;;4991916;28;20933;-91
2023/05/05 08:56:28;;;;;;;12.53;5.50;;;;;;;;;;4993091;28;20446;-89
2023/05/05 08:58:54;;;;;;;6.10;3.87;;;;;;;;;;4996973;28;20438;-90
2023/05/05 09:01:20;;;;;;;4.40;3.33;;;;;;;;;;4994247;28;20438;-93
2023/05/05 09:03:46;;;;;;;6.20;5.23;;;;;;;;;;4990581;28;20424;-95
2023/05/05 09:06:12;;;;;;;4.40;3.63;;;;;;;;;;4997128;28;20861;-95
2023/05/05 09:08:38;;;;;;;6.00;4.57;;;;;;;;;;4995653;28;20458;-94
2023/05/05 09:11:05;;;;;;;12.80;4.33;;;;;;;;;;4994103;28;20998;-88
2023/05/05 09:13:31;;;;;;;3.70;3.40;;;;;;;;;;4993704;28;20421;-89
2023/05/05 09:15:57;;;;;;;5.43;3.80;;;;;;;;;;4974142;28;20445;-88
2023/05/05 09:18:24;;;;;;;5.47;3.90;;;;;;;;;;4992087;28;20433;-88
2023/05/05 09:20:50;;;;;;;5.33;3.57;;;;;;;;;;4994821;28;20437;-89
2023/05/05 09:23:16;;;;;;;6.43;3.30;;;;;;;;;;4992488;28;20455;-88
2023/05/05 09:25:43;;;;;;;4.87;3.40;;;;;;;;;;4993992;28;20465;-89
2023/05/05 09:28:12;;;;;;;3.50;2.93;;;;;;;;;;4991937;28;20437;-90
2023/05/05 09:30:39;;;;;;;7.60;3.00;;;;;;;;;;4990998;28;20489;-91
2023/05/05 09:33:05;;;;;;;4.20;3.60;;;;;;;;;;4986836;28;20477;-89
2023/05/05 09:35:52;;;;;;;4.17;3.77;;;;;;;;;;4994126;28;20692;-88
2023/05/05 09:38:19;;;;;;;4.77;3.77;;;;;;;;;;4991749;28;20430;-89
2023/05/05 09:40:51;;;;;;;3.40;3.10;;;;;;;;;;4992282;28;20525;-90
2023/05/05 09:43:18;;;;;;;5.93;3.57;;;;;;;;;;4985074;28;20457;-88
2023/05/05 09:45:45;;;;;;;4.00;3.20;;;;;;;;;;4990215;28;20433;-89
2023/05/05 09:48:30;;;;;;;5.53;4.60;;;;;;;;;;4992652;28;20809;-88
2023/05/05 09:50:56;;;;;;;3.67;3.37;;;;;;;;;;4992910;28;20983;-89
2023/05/05 09:53:22;;;;;;;4.10;3.40;;;;;;;;;;4986291;28;20980;-89
2023/05/05 09:55:54;;;;;;;4.30;3.00;;;;;;;;;;4989340;28;20506;-88
2023/05/05 09:58:22;;;;;;;9.60;6.50;;;;;;;;;;4985365;28;21147;-88
2023/05/05 10:00:48;;;;;;;5.13;3.97;;;;;;;;;;4985319;28;20450;-89
2023/05/05 10:03:14;;;;;;;4.30;3.40;;;;;;;;;;4985295;28;20437;-88
2023/05/05 10:05:50;;;;;;;3.40;2.80;;;;;;;;;;4992317;28;20441;-87
2023/05/05 10:08:17;;;;;;;3.80;3.10;;;;;;;;;;4954049;28;1119138;-88
2023/05/05 10:10:46;;;;;;;3.57;2.40;;;;;;;;;;4992599;28;20210;-87
2023/05/05 10:13:12;;;;;;;3.83;3.43;;;;;;;;;;4992044;28;20443;-88
2023/05/05 10:15:39;;;;;;;5.03;2.77;;;;;;;;;;4989958;28;20433;-88
2023/05/05 10:18:05;;;;;;;2.80;2.50;;;;;;;;;;4990861;28;20508;-88
2023/05/05 10:20:31;;;;;;;3.47;2.70;;;;;;;;;;4980759;28;20437;-87
2023/05/05 10:22:57;;;;;;;3.63;2.43;;;;;;;;;;4981741;28;20501;-88
2023/05/05 10:25:30;;;;;;;3.70;2.47;;;;;;;;;;4994972;28;20502;-88
2023/05/05 10:27:58;;;;;;;4.30;2.77;;;;;;;;;;5002290;28;20492;-88
2023/05/05 10:30:25;;;;;;;3.67;2.77;;;;;;;;;;4994462;28;20469;-88
2023/05/05 10:32:51;;;;;;;2.87;2.07;;;;;;;;;;4990340;28;20438;-86
2023/05/05 10:35:21;;;;;;;4.40;2.57;;;;;;;;;;4984086;28;20465;-88
2023/05/05 10:37:47;;;;;;;5.23;2.50;;;;;;;;;;4993145;28;20410;-90
2023/05/05 10:40:13;;;;;;;5.27;3.90;;;;;;;;;;4990336;28;20591;-88
2023/05/05 10:42:39;;;;;;;4.70;4.13;;;;;;;;;;4992192;28;20493;-88
2023/05/05 10:45:06;;;;;;;4.00;2.87;;;;;;;;;;4995345;28;20842;-88
2023/05/05 10:47:32;;;;;;;4.70;2.63;;;;;;;;;;4994817;28;20501;-88
2023/05/05 10:50:10;;;;;;;4.00;3.10;;;;;;;;;;4993335;28;20470;-88
2023/05/05 10:52:42;;;;;;;6.30;2.77;;;;;;;;;;4990467;28;20503;-88
2023/05/05 10:55:20;;;;;;;2.80;2.43;;;;;;;;;;4999629;28;20449;-87
2023/05/05 10:57:46;;;;;;;3.43;2.27;;;;;;;;;;4986569;28;20429;-88
2023/05/05 11:00:35;;;;;;;3.53;2.50;;;;;;;;;;4991416;28;20820;-88
2023/05/05 11:03:17;;;;;;;4.30;2.20;;;;;;;;;;4974947;28;20934;-88
2023/05/05 11:06:01;;;;;;;4.47;2.20;;;;;;;;;;4973065;28;20501;-88
2023/05/05 11:08:27;;;;;;;2.63;1.63;;;;;;;;;;4974302;28;20442;-89
2023/05/05 11:10:53;;;;;;;4.90;2.40;;;;;;;;;;4975809;28;20475;-85
2023/05/05 11:13:19;;;;;;;4.00;1.77;;;;;;;;;;4957012;28;20532;-88
2023/05/05 11:15:45;;;;;;;2.93;1.97;;;;;;;;;;4957811;28;20415;-88
2023/05/05 11:18:30;;;;;;;3.70;1.77;;;;;;;;;;4969697;28;21229;-88
2023/05/05 11:20:59;;;;;;;2.80;1.63;;;;;;;;;;4953414;28;20538;-88
2023/05/05 11:23:25;;;;;;;1.93;1.60;;;;;;;;;;4959103;28;20426;-88
2023/05/05 11:25:51;;;;;;;3.00;2.33;;;;;;;;;;4954446;28;20597;-88
2023/05/05 11:28:17;;;;;;;4.23;2.10;;;;;;;;;;4956249;28;20569;-88
2023/05/05 11:30:56;;;;;;;3.70;2.20;;;;;;;;;;4956687;28;20466;-88
2023/05/05 11:33:27;;;;;;;2.80;1.87;;;;;;;;;;4975759;28;20693;-88
2023/05/05 11:35:54;;;;;;;2.53;2.33;;;;;;;;;;4972555;28;20431;-88
2023/05/05 11:38:21;;;;;;;3.57;2.67;;;;;;;;;;4989681;28;20465;-89
2023/05/05 11:40:47;;;;;;;3.70;2.50;;;;;;;;;;4989950;28;20513;-89
2023/05/05 11:43:14;;;;;;;6.13;2.30;;;;;;;;;;4990971;28;20465;-88
2023/05/05 11:45:40;;;;;;;2.80;1.97;;;;;;;;;;4973949;28;21002;-87
2023/05/05 11:48:27;;;;;;;5.20;1.70;;;;;;;;;;4991776;28;20458;-88
2023/05/05 11:50:54;;;;;;;3.20;1.63;;;;;;;;;;4988463;28;20801;-88
2023/05/05 11:53:20;;;;;;;2.50;1.30;;;;;;;;;;4991924;28;20472;-86
2023/05/05 11:55:46;;;;;;;2.90;1.80;;;;;;;;;;4991049;28;20438;-88
2023/05/05 11:58:19;;;;;;;3.10;2.00;;;;;;;;;;4987049;28;20449;-87
2023/05/05 12:00:45;;;;;;;2.47;1.80;;;;;;;;;;4990477;28;20544;-88
2023/05/05 12:03:11;;;;;;;2.20;1.73;;;;;;;;;;4979580;28;20444;-88
2023/05/05 12:05:37;;;;;;;2.80;2.00;;;;;;;;;;4989459;28;20444;-88
2023/05/05 12:08:03;;;;;;;6.23;2.27;;;;;;;;;;4991921;28;20469;-88
2023/05/05 12:10:29;;;;;;;5.40;2.47;;;;;;;;;;4995004;28;20489;-88
2023/05/05 12:12:55;;;;;;;3.43;2.70;;;;;;;;;;4978401;28;20433;-88
2023/05/05 12:15:28;;;;;;;5.13;2.23;;;;;;;;;;4974151;28;20453;-89
2023/05/05 12:17:54;;;;;;;3.70;2.33;;;;;;;;;;4990541;28;21083;-88
2023/05/05 12:20:28;;;;;;;2.70;1.87;;;;;;;;;;4974817;28;20674;-89
2023/05/05 12:22:59;;;;;;;2.83;1.90;;;;;;;;;;4982062;28;20874;-88
2023/05/05 12:25:26;;;;;;;4.10;2.50;;;;;;;;;;4978226;28;20434;-87
2023/05/05 12:27:52;;;;;;;3.37;2.40;;;;;;;;;;4991620;28;20445;-88
2023/05/05 12:30:18;;;;;;;3.37;2.47;;;;;;;;;;4991921;28;20458;-87
2023/05/05 12:32:44;;;;;;;4.00;1.80;;;;;;;;;;4991413;28;20469;-88
2023/05/05 12:35:10;;;;;;;3.57;2.37;;;;;;;;;;4991244;28;20439;-88
2023/05/05 12:37:36;;;;;;;2.97;2.40;;;;;;;;;;4989588;28;20442;-87
2023/05/05 12:40:04;;;;;;;4.77;2.67;;;;;;;;;;4976709;28;20541;-87
2023/05/05 12:42:30;;;;;;;3.33;2.83;;;;;;;;;;4991145;28;20683;-88
2023/05/05 12:44:57;;;;;;;6.83;2.43;;;;;;;;;;4991321;28;20450;-87
2023/05/05 12:47:30;;;;;;;3.20;2.80;;;;;;;;;;4990352;28;20433;-87
2023/05/05 12:49:57;;;;;;;4.20;2.70;;;;;;;;;;4990981;28;20469;-87
2023/05/05 12:52:23;;;;;;;3.63;2.60;;;;;;;;;;4992999;28;20438;-92
2023/05/05 12:54:53;;;;;;;6.33;2.67;;;;;;;;;;4992029;28;20453;-91
2023/05/05 12:57:18;;;;;;;4.40;2.87;;;;;;;;;;4990163;28;20469;-89
2023/05/05 12:59:44;;;;;;;4.13;2.60;;;;;;;;;;4991029;28;20422;-92
2023/05/05 13:02:10;;;;;;;6.50;3.43;;;;;;;;;;4990571;28;20525;-91
2023/05/05 13:04:47;;;;;;;3.73;3.00;;;;;;;;;;4988941;28;20439;-90
2023/05/05 13:07:13;;;;;;;5.50;2.27;;;;;;;;;;4991774;28;20438;-92
2023/05/05 13:09:39;;;;;;;3.17;2.40;;;;;;;;;;4993614;28;21204;-91
2023/05/05 13:12:07;;;;;;;5.53;2.57;;;;;;;;;;4993117;28;20449;-92
2023/05/05 13:14:33;;;;;;;4.33;2.43;;;;;;;;;;4994835;28;20446;-94
2023/05/05 13:16:59;;;;;;;2.90;2.20;;;;;;;;;;4997005;28;20496;-93
2023/05/05 13:19:26;;;;;;;2.80;2.20;;;;;;;;;;4994863;28;20434;-93
2023/05/05 13:21:52;;;;;;;6.27;2.70;;;;;;;;;;4987838;28;20434;-92
2023/05/05 13:24:19;;;;;;;3.30;2.60;;;;;;;;;;4991966;28;20432;-92
2023/05/05 13:26:45;;;;;;;3.67;2.10;;;;;;;;;;4987604;28;20442;-90
2023/05/05 13:29:11;;;;;;;4.03;2.20;;;;;;;;;;4993781;28;20464;-92
2023/05/05 13:31:37;;;;;;;3.43;2.63;;;;;;;;;;4989135;28;20438;-93
2023/05/05 13:34:03;;;;;;;2.50;2.07;;;;;;;;;;4997767;28;20430;-92
2023/05/05 13:36:30;;;;;;;4.20;2.70;;;;;;;;;;4994432;28;20442;-91
2023/05/05 13:38:56;;;;;;;5.90;2.47;;;;;;;;;;4997384;28;20510;-90
2023/05/05 13:41:22;;;;;;;4.23;2.80;;;;;;;;;;4990789;28;21345;-91
2023/05/05 13:43:48;;;;;;;4.10;2.93;;;;;;;;;;4992765;28;20433;-89
2023/05/05 13:46:14;;;;;;;4.00;2.60;;;;;;;;;;4992986;28;20434;-89
2023/05/05 13:48:40;;;;;;;2.83;2.40;;;;;;;;;;4994078;28;20457;-91
2023/05/05 13:51:06;;;;;;;3.83;2.50;;;;;;;;;;4988484;28;20820;-91
2023/05/05 13:53:34;;;;;;;3.17;2.87;;;;;;;;;;4989728;28;20490;-92
2023/05/05 13:56:00;;;;;;;6.03;2.30;;;;;;;;;;4991393;28;20418;-91
2023/05/05 13:58:26;;;;;;;4.20;2.50;;;;;;;;;;4996535;28;20842;-91
2023/05/05 14:00:52;;;;;;;3.50;2.23;;;;;;;;;;4995515;28;20437;-92
2023/05/05 14:03:17;;;;;;;5.00;2.80;;;;;;;;;;4997089;28;20456;-91
2023/05/05 14:05:45;;;;;;;3.70;2.30;;;;;;;;;;4992776;28;20441;-90
2023/05/05 14:08:11;;;;;;;5.60;2.73;;;;;;;;;;4995141;28;20457;-92
2023/05/05 14:10:39;;;;;;;2.90;2.60;;;;;;;;;;5000772;28;20453;-90
2023/05/05 14:13:05;;;;;;;4.60;3.00;;;;;;;;;;5000727;28;20472;-91
2023/05/05 14:15:32;;;;;;;6.90;3.10;;;;;;;;;;4992424;28;20434;-91
2023/05/05 14:17:58;;;;;;;5.00;2.93;;;;;;;;;;4996131;28;20430;-92
2023/05/05 14:20:25;;;;;;;4.10;2.60;;;;;;;;;;4993926;28;20418;-88
2023/05/05 14:22:52;;;;;;;2.90;2.37;;;;;;;;;;4992798;28;20426;-87
2023/05/05 14:25:18;;;;;;;3.97;2.80;;;;;;;;;;4992765;28;20438;-88
2023/05/05 14:27:44;;;;;;;3.87;2.80;;;;;;;;;;4981044;28;21060;-89
2023/05/05 14:30:10;;;;;;;12.60;3.57;;;;;;;;;;4971374;28;20502;-89
2023/05/05 14:32:36;;;;;;;5.00;2.97;;;;;;;;;;4993444;28;20520;-88
2023/05/05 14:35:02;;;;;;;5.73;2.70;;;;;;;;;;4982721;28;20428;-88
2023/05/05 14:37:28;;;;;;;2.97;2.37;;;;;;;;;;4992665;28;20473;-88
2023/05/05 14:39:54;;;;;;;3.70;2.83;;;;;;;;;;4994362;28;20491;-87
2023/05/05 14:42:20;;;;;;;4.63;2.93;;;;;;;;;;4993895;28;20432;-91
2023/05/05 14:44:46;;;;;;;4.13;3.50;;;;;;;;;;4993131;28;20528;-88